sensor_id;sensor_type;location;lat;lon;timestamp;pressure;altitude;pressure_sealevel;temperature;humidity
8573;BME280;4324;42.012;24.872;2023-04-03T00:00:07;98241.88;;;12.27;49.91
8573;BME280;4324;42.012;24.872;2023-04-03T00:02:35;98247.22;;;12.33;49.86
8573;BME280;4324;42.012;24.872;2023-04-03T00:05:02;98249.28;;;12.38;49.86
8573;BME280;4324;42.012;24.872;2023-04-03T00:07:30;98225.13;;;12.26;49.92
8573;BME280;4324;42.012;24.872;2023-04-03T00:09:56;98233.13;;;12.33;50.03
8573;BME280;4324;42.012;24.872;2023-04-03T00:12:23;98225.13;;;12.26;49.96
8573;BME280;4324;42.012;24.872;2023-04-03T00:14:52;98238.44;;;12.33;49.95
8573;BME280;4324;42.012;24.872;2023-04-03T00:17:18;98239.84;;;12.29;49.88
8573;BME280;4324;42.012;24.872;2023-04-03T00:19:45;98243.75;;;12.33;50.01
8573;BME280;4324;42.012;24.872;2023-04-03T00:22:12;98230.81;;;12.23;50.21
8573;BME280;4324;42.012;24.872;2023-04-03T00:24:39;98242.28;;;12.30;50.12
8573;BME280;4324;42.012;24.872;2023-04-03T00:27:06;98241.88;;;12.27;50.27
8573;BME280;4324;42.012;24.872;2023-04-03T00:29:33;98229.97;;;12.16;50.34
8573;BME280;4324;42.012;24.872;2023-04-03T00:32:01;98225.41;;;12.03;50.34
8573;BME280;4324;42.012;24.872;2023-04-03T00:34:28;98249.19;;;12.18;50.56
8573;BME280;4324;42.012;24.872;2023-04-03T00:36:55;98235.84;;;12.11;50.81
8573;BME280;4324;42.012;24.872;2023-04-03T00:39:22;98240.19;;;12.13;50.65
8573;BME280;4324;42.012;24.872;2023-04-03T00:41:49;98252.03;;;12.17;50.49
8573;BME280;4324;42.012;24.872;2023-04-03T00:44:21;98241.53;;;12.08;50.58
8573;BME280;4324;42.012;24.872;2023-04-03T00:46:48;98242.41;;;12.09;50.57
8573;BME280;4324;42.012;24.872;2023-04-03T00:49:16;98224.91;;;11.93;50.58
8573;BME280;4324;42.012;24.872;2023-04-03T00:51:43;98242.72;;;11.99;50.89
8573;BME280;4324;42.012;24.872;2023-04-03T00:54:10;98246.00;;;12.01;50.73
8573;BME280;4324;42.012;24.872;2023-04-03T00:56:38;98235.53;;;11.93;50.80
8573;BME280;4324;42.012;24.872;2023-04-03T00:59:10;98254.91;;;11.94;51.19
8573;BME280;4324;42.012;24.872;2023-04-03T01:01:37;98242.88;;;11.91;51.45
8573;BME280;4324;42.012;24.872;2023-04-03T01:04:05;98239.16;;;11.85;51.19
8573;BME280;4324;42.012;24.872;2023-04-03T01:06:35;98235.41;;;11.80;51.13
8573;BME280;4324;42.012;24.872;2023-04-03T01:09:03;98230.06;;;11.73;51.10
8573;BME280;4324;42.012;24.872;2023-04-03T01:11:30;98244.81;;;11.82;51.46
8573;BME280;4324;42.012;24.872;2023-04-03T01:13:57;98237.06;;;11.81;51.41
8573;BME280;4324;42.012;24.872;2023-04-03T01:16:24;98231.06;;;11.72;51.39
8573;BME280;4324;42.012;24.872;2023-04-03T01:18:51;98201.19;;;11.57;51.50
8573;BME280;4324;42.012;24.872;2023-04-03T01:21:44;98237.88;;;11.81;51.66
8573;BME280;4324;42.012;24.872;2023-04-03T01:24:22;98234.97;;;11.76;51.48
8573;BME280;4324;42.012;24.872;2023-04-03T01:26:51;98229.69;;;11.76;51.55
8573;BME280;4324;42.012;24.872;2023-04-03T01:29:18;98223.06;;;11.66;51.64
8573;BME280;4324;42.012;24.872;2023-04-03T01:31:49;98242.66;;;11.71;51.56
8573;BME280;4324;42.012;24.872;2023-04-03T01:34:16;98236.13;;;11.67;51.55
8573;BME280;4324;42.012;24.872;2023-04-03T01:36:43;98237.34;;;11.65;51.69
8573;BME280;4324;42.012;24.872;2023-04-03T01:39:10;98240.16;;;11.63;51.79
8573;BME280;4324;42.012;24.872;2023-04-03T01:41:37;98240.38;;;11.61;51.82
8573;BME280;4324;42.012;24.872;2023-04-03T01:44:05;98173.75;;;11.22;51.65
8573;BME280;4324;42.012;24.872;2023-04-03T01:46:32;98223.81;;;11.59;51.89
8573;BME280;4324;42.012;24.872;2023-04-03T01:49:01;98208.94;;;11.37;52.08
8573;BME280;4324;42.012;24.872;2023-04-03T01:51:27;98217.41;;;11.47;52.10
8573;BME280;4324;42.012;24.872;2023-04-03T01:53:54;98217.97;;;11.43;51.97
8573;BME280;4324;42.012;24.872;2023-04-03T01:56:21;98233.97;;;11.56;51.90
8573;BME280;4324;42.012;24.872;2023-04-03T01:58:48;98239.13;;;11.57;52.08
8573;BME280;4324;42.012;24.872;2023-04-03T02:01:15;98228.25;;;11.52;52.08
8573;BME280;4324;42.012;24.872;2023-04-03T02:03:42;98235.81;;;11.55;52.47
8573;BME280;4324;42.012;24.872;2023-04-03T02:06:11;98228.81;;;11.48;52.31
8573;BME280;4324;42.012;24.872;2023-04-03T02:08:38;98233.69;;;11.44;52.12
8573;BME280;4324;42.012;24.872;2023-04-03T02:11:05;98228.00;;;11.47;52.29
8573;BME280;4324;42.012;24.872;2023-04-03T02:13:32;98219.16;;;11.40;52.08
8573;BME280;4324;42.012;24.872;2023-04-03T02:15:59;98243.97;;;11.54;52.20
8573;BME280;4324;42.012;24.872;2023-04-03T02:18:26;98251.84;;;11.47;52.24
8573;BME280;4324;42.012;24.872;2023-04-03T02:20:53;98241.69;;;11.51;52.06
8573;BME280;4324;42.012;24.872;2023-04-03T02:23:21;98250.66;;;11.50;52.22
8573;BME280;4324;42.012;24.872;2023-04-03T02:25:48;98243.72;;;11.49;52.52
8573;BME280;4324;42.012;24.872;2023-04-03T02:28:15;98238.59;;;11.47;52.27
8573;BME280;4324;42.012;24.872;2023-04-03T02:30:42;98242.50;;;11.51;52.79
8573;BME280;4324;42.012;24.872;2023-04-03T02:33:09;98251.50;;;11.50;52.34
8573;BME280;4324;42.012;24.872;2023-04-03T02:35:36;98222.78;;;11.32;52.55
8573;BME280;4324;42.012;24.872;2023-04-03T02:38:03;98241.63;;;11.44;52.45
8573;BME280;4324;42.012;24.872;2023-04-03T02:40:31;98235.44;;;11.37;52.71
8573;BME280;4324;42.012;24.872;2023-04-03T02:42:58;98230.91;;;11.31;52.47
8573;BME280;4324;42.012;24.872;2023-04-03T02:45:25;98249.34;;;11.39;52.56
8573;BME280;4324;42.012;24.872;2023-04-03T02:47:52;98233.94;;;11.28;52.57
8573;BME280;4324;42.012;24.872;2023-04-03T02:50:19;98236.63;;;11.34;52.78
8573;BME280;4324;42.012;24.872;2023-04-03T02:52:45;98239.50;;;11.33;53.00
8573;BME280;4324;42.012;24.872;2023-04-03T02:55:15;98250.75;;;11.35;53.05
8573;BME280;4324;42.012;24.872;2023-04-03T02:57:44;98159.50;;;10.80;52.82
8573;BME280;4324;42.012;24.872;2023-04-03T03:00:11;98236.84;;;11.33;52.91
8573;BME280;4324;42.012;24.872;2023-04-03T03:02:38;98227.63;;;11.29;52.92
8573;BME280;4324;42.012;24.872;2023-04-03T03:05:06;98229.09;;;11.31;52.94
8573;BME280;4324;42.012;24.872;2023-04-03T03:07:33;98229.25;;;11.30;53.04
8573;BME280;4324;42.012;24.872;2023-04-03T03:10:00;98228.06;;;11.32;52.84
8573;BME280;4324;42.012;24.872;2023-04-03T03:12:27;98233.94;;;11.28;52.91
8573;BME280;4324;42.012;24.872;2023-04-03T03:14:55;98232.50;;;11.25;52.96
8573;BME280;4324;42.012;24.872;2023-04-03T03:17:22;98206.69;;;11.12;52.84
8573;BME280;4324;42.012;24.872;2023-04-03T03:19:49;98230.91;;;11.31;52.94
8573;BME280;4324;42.012;24.872;2023-04-03T03:22:16;98209.81;;;11.23;52.79
8573;BME280;4324;42.012;24.872;2023-04-03T03:24:43;98201.78;;;11.09;52.72
8573;BME280;4324;42.012;24.872;2023-04-03T03:27:10;98206.69;;;11.12;52.78
8573;BME280;4324;42.012;24.872;2023-04-03T03:29:37;98190.28;;;11.02;52.98
8573;BME280;4324;42.012;24.872;2023-04-03T03:32:06;98210.66;;;11.23;52.94
8573;BME280;4324;42.012;24.872;2023-04-03T03:34:32;98211.88;;;11.21;53.06
8573;BME280;4324;42.012;24.872;2023-04-03T03:36:59;98196.47;;;11.09;53.03
8573;BME280;4324;42.012;24.872;2023-04-03T03:39:26;98195.81;;;11.07;52.92
8573;BME280;4324;42.012;24.872;2023-04-03T03:41:53;98207.44;;;11.06;53.07
8573;BME280;4324;42.012;24.872;2023-04-03T03:44:20;98203.53;;;11.02;53.26
8573;BME280;4324;42.012;24.872;2023-04-03T03:46:47;98207.56;;;10.98;53.24
8573;BME280;4324;42.012;24.872;2023-04-03T03:49:15;98207.72;;;10.97;52.98
8573;BME280;4324;42.012;24.872;2023-04-03T03:51:42;98227.00;;;11.05;53.15
8573;BME280;4324;42.012;24.872;2023-04-03T03:54:09;98225.34;;;11.04;53.27
8573;BME280;4324;42.012;24.872;2023-04-03T03:56:36;98213.94;;;11.04;53.16
8573;BME280;4324;42.012;24.872;2023-04-03T03:59:03;98167.56;;;10.72;52.57
8573;BME280;4324;42.012;24.872;2023-04-03T04:01:30;98240.94;;;11.14;51.95
8573;BME280;4324;42.012;24.872;2023-04-03T04:03:57;98231.91;;;11.08;51.77
8573;BME280;4324;42.012;24.872;2023-04-03T04:06:25;98238.84;;;11.09;52.32
8573;BME280;4324;42.012;24.872;2023-04-03T04:08:52;98214.63;;;10.91;52.66
8573;BME280;4324;42.012;24.872;2023-04-03T04:11:19;98224.06;;;11.00;52.20
8573;BME280;4324;42.012;24.872;2023-04-03T04:13:47;98240.38;;;11.19;51.76
8573;BME280;4324;42.012;24.872;2023-04-03T04:16:14;98235.56;;;11.07;52.35
8573;BME280;4324;42.012;24.872;2023-04-03T04:18:41;98256.84;;;11.14;52.56
8573;BME280;4324;42.012;24.872;2023-04-03T04:21:08;98252.34;;;11.14;52.97
8573;BME280;4324;42.012;24.872;2023-04-03T04:23:36;98257.47;;;11.16;52.89
8573;BME280;4324;42.012;24.872;2023-04-03T04:26:03;98261.06;;;11.30;52.85
8573;BME280;4324;42.012;24.872;2023-04-03T04:28:30;98234.25;;;11.18;52.73
8573;BME280;4324;42.012;24.872;2023-04-03T04:30:56;98246.78;;;11.31;52.84
8573;BME280;4324;42.012;24.872;2023-04-03T04:33:23;98260.84;;;11.46;52.77
8573;BME280;4324;42.012;24.872;2023-04-03T04:35:51;98245.09;;;11.45;52.50
8573;BME280;4324;42.012;24.872;2023-04-03T04:38:17;98255.84;;;11.58;52.40
8573;BME280;4324;42.012;24.872;2023-04-03T04:40:46;98256.50;;;11.67;52.46
8573;BME280;4324;42.012;24.872;2023-04-03T04:43:14;98257.78;;;11.71;52.45
8573;BME280;4324;42.012;24.872;2023-04-03T04:45:40;98248.41;;;11.75;52.40
8573;BME280;4324;42.012;24.872;2023-04-03T04:48:08;98250.91;;;11.76;52.17
8573;BME280;4324;42.012;24.872;2023-04-03T04:50:34;98245.66;;;11.83;52.26
8573;BME280;4324;42.012;24.872;2023-04-03T04:53:01;98253.88;;;11.88;52.10
8573;BME280;4324;42.012;24.872;2023-04-03T04:55:29;98238.69;;;11.82;51.91
8573;BME280;4324;42.012;24.872;2023-04-03T04:57:58;98268.63;;;11.97;51.90
8573;BME280;4324;42.012;24.872;2023-04-03T05:00:25;98259.25;;;12.01;51.67
8573;BME280;4324;42.012;24.872;2023-04-03T05:02:52;98254.81;;;12.08;51.80
8573;BME280;4324;42.012;24.872;2023-04-03T05:05:19;98250.53;;;12.07;51.57
8573;BME280;4324;42.012;24.872;2023-04-03T05:07:46;98267.75;;;12.18;51.63
8573;BME280;4324;42.012;24.872;2023-04-03T05:10:13;98249.13;;;12.11;51.51
8573;BME280;4324;42.012;24.872;2023-04-03T05:12:39;98272.31;;;12.31;51.27
8573;BME280;4324;42.012;24.872;2023-04-03T05:15:09;98198.97;;;11.89;51.20
8573;BME280;4324;42.012;24.872;2023-04-03T05:17:36;98280.38;;;12.44;51.10
8573;BME280;4324;42.012;24.872;2023-04-03T05:20:04;98284.91;;;12.50;51.14
8573;BME280;4324;42.012;24.872;2023-04-03T05:22:31;98275.28;;;12.49;50.85
8573;BME280;4324;42.012;24.872;2023-04-03T05:24:58;98284.97;;;12.64;50.78
8573;BME280;4324;42.012;24.872;2023-04-03T05:27:25;98274.34;;;12.64;50.52
8573;BME280;4324;42.012;24.872;2023-04-03T05:29:54;98298.94;;;12.79;50.47
8573;BME280;4324;42.012;24.872;2023-04-03T05:32:23;98287.09;;;12.81;50.70
8573;BME280;4324;42.012;24.872;2023-04-03T05:34:50;98280.38;;;12.86;50.59
8573;BME280;4324;42.012;24.872;2023-04-03T05:37:17;98291.88;;;12.99;50.55
8573;BME280;4324;42.012;24.872;2023-04-03T05:39:44;98280.19;;;12.94;50.37
8573;BME280;4324;42.012;24.872;2023-04-03T05:42:11;98264.63;;;12.84;50.24
8573;BME280;4324;42.012;24.872;2023-04-03T05:44:38;98294.75;;;13.04;50.30
8573;BME280;4324;42.012;24.872;2023-04-03T05:47:06;98298.66;;;13.08;50.07
8573;BME280;4324;42.012;24.872;2023-04-03T05:49:34;98304.47;;;13.25;50.00
8573;BME280;4324;42.012;24.872;2023-04-03T05:52:01;98276.19;;;13.18;49.85
8573;BME280;4324;42.012;24.872;2023-04-03T05:54:29;98284.03;;;13.32;49.75
8573;BME280;4324;42.012;24.872;2023-04-03T05:56:56;98289.38;;;13.39;49.51
8573;BME280;4324;42.012;24.872;2023-04-03T05:59:23;98295.09;;;13.49;49.17
8573;BME280;4324;42.012;24.872;2023-04-03T06:01:50;98289.38;;;13.52;48.89
8573;BME280;4324;42.012;24.872;2023-04-03T06:04:17;98295.94;;;13.63;49.00
8573;BME280;4324;42.012;24.872;2023-04-03T06:06:48;98285.31;;;13.70;49.05
8573;BME280;4324;42.012;24.872;2023-04-03T06:09:17;98253.19;;;13.58;48.68
8573;BME280;4324;42.012;24.872;2023-04-03T06:11:45;98193.63;;;13.26;48.71
8573;BME280;4324;42.012;24.872;2023-04-03T06:14:12;98282.88;;;13.82;48.78
8573;BME280;4324;42.012;24.872;2023-04-03T06:16:39;98300.47;;;13.89;48.57
8573;BME280;4324;42.012;24.872;2023-04-03T06:19:06;98308.69;;;13.94;48.52
8573;BME280;4324;42.012;24.872;2023-04-03T06:21:33;98311.94;;;13.96;48.41
8573;BME280;4324;42.012;24.872;2023-04-03T06:24:02;98308.69;;;13.94;48.44
8573;BME280;4324;42.012;24.872;2023-04-03T06:26:29;98295.97;;;13.90;48.42
8573;BME280;4324;42.012;24.872;2023-04-03T06:28:56;98305.19;;;14.07;48.37
8573;BME280;4324;42.012;24.872;2023-04-03T06:31:26;98292.28;;;14.11;48.25
8573;BME280;4324;42.012;24.872;2023-04-03T06:33:53;98207.78;;;13.73;48.24
8573;BME280;4324;42.012;24.872;2023-04-03T06:36:20;98289.59;;;14.31;48.26
8573;BME280;4324;42.012;24.872;2023-04-03T06:38:48;98280.38;;;14.33;48.39
8573;BME280;4324;42.012;24.872;2023-04-03T06:41:16;98294.72;;;14.52;48.41
8573;BME280;4324;42.012;24.872;2023-04-03T06:43:43;98295.91;;;14.63;48.72
8573;BME280;4324;42.012;24.872;2023-04-03T06:46:14;98302.63;;;14.72;48.39
8573;BME280;4324;42.012;24.872;2023-04-03T06:48:42;98316.56;;;14.81;48.25
8573;BME280;4324;42.012;24.872;2023-04-03T06:51:16;98316.59;;;14.74;48.09
8573;BME280;4324;42.012;24.872;2023-04-03T06:53:44;98323.91;;;14.92;48.27
8573;BME280;4324;42.012;24.872;2023-04-03T06:56:11;98307.34;;;14.83;48.23
8573;BME280;4324;42.012;24.872;2023-04-03T06:58:40;98314.31;;;14.84;48.25
8573;BME280;4324;42.012;24.872;2023-04-03T07:01:07;98301.22;;;14.69;48.36
8573;BME280;4324;42.012;24.872;2023-04-03T07:03:35;98303.28;;;14.67;48.15
8573;BME280;4324;42.012;24.872;2023-04-03T07:06:02;98324.16;;;14.77;48.37
8573;BME280;4324;42.012;24.872;2023-04-03T07:08:29;98340.09;;;14.90;48.29
8573;BME280;4324;42.012;24.872;2023-04-03T07:10:56;98344.66;;;14.83;48.24
8573;BME280;4324;42.012;24.872;2023-04-03T07:13:23;98334.84;;;14.70;48.03
8573;BME280;4324;42.012;24.872;2023-04-03T07:15:52;98343.88;;;14.69;48.41
8573;BME280;4324;42.012;24.872;2023-04-03T07:18:19;98326.44;;;14.67;48.44
8573;BME280;4324;42.012;24.872;2023-04-03T07:20:46;98334.44;;;14.73;48.40
8573;BME280;4324;42.012;24.872;2023-04-03T07:23:13;98326.63;;;14.79;48.34
8573;BME280;4324;42.012;24.872;2023-04-03T07:25:42;98318.44;;;14.80;48.17
8573;BME280;4324;42.012;24.872;2023-04-03T07:28:09;98326.56;;;14.98;48.08
8573;BME280;4324;42.012;24.872;2023-04-03T07:30:42;98287.41;;;14.99;47.69
8573;BME280;4324;42.012;24.872;2023-04-03T07:33:11;98291.78;;;15.25;47.25
8573;BME280;4324;42.012;24.872;2023-04-03T07:35:39;98323.00;;;15.56;47.24
8573;BME280;4324;42.012;24.872;2023-04-03T07:38:06;98304.06;;;15.64;47.45
8573;BME280;4324;42.012;24.872;2023-04-03T07:40:33;98314.03;;;15.82;47.35
8573;BME280;4324;42.012;24.872;2023-04-03T07:43:00;98318.22;;;15.96;47.18
8573;BME280;4324;42.012;24.872;2023-04-03T07:45:28;98317.91;;;16.11;47.01
8573;BME280;4324;42.012;24.872;2023-04-03T07:47:55;98310.00;;;16.23;46.98
8573;BME280;4324;42.012;24.872;2023-04-03T07:50:23;98312.56;;;16.36;47.04
8573;BME280;4324;42.012;24.872;2023-04-03T07:52:50;98317.47;;;16.39;46.72
8573;BME280;4324;42.012;24.872;2023-04-03T07:55:20;98306.47;;;16.29;46.50
8573;BME280;4324;42.012;24.872;2023-04-03T07:57:46;98315.06;;;16.31;46.61
8573;BME280;4324;42.012;24.872;2023-04-03T08:00:14;98314.91;;;16.26;46.64
8573;BME280;4324;42.012;24.872;2023-04-03T08:02:42;98301.66;;;16.13;46.54
8573;BME280;4324;42.012;24.872;2023-04-03T08:05:09;98281.63;;;16.04;46.76
8573;BME280;4324;42.012;24.872;2023-04-03T08:07:38;98297.06;;;16.20;46.81
8573;BME280;4324;42.012;24.872;2023-04-03T08:10:06;98291.28;;;16.23;46.42
8573;BME280;4324;42.012;24.872;2023-04-03T08:12:33;98286.72;;;16.30;46.60
8573;BME280;4324;42.012;24.872;2023-04-03T08:15:00;98287.91;;;16.34;46.45
8573;BME280;4324;42.012;24.872;2023-04-03T08:17:27;98306.63;;;16.53;46.58
8573;BME280;4324;42.012;24.872;2023-04-03T08:19:54;98288.09;;;16.58;46.46
8573;BME280;4324;42.012;24.872;2023-04-03T08:22:21;98297.00;;;16.70;46.40
8573;BME280;4324;42.012;24.872;2023-04-03T08:24:49;98274.19;;;16.49;46.54
8573;BME280;4324;42.012;24.872;2023-04-03T08:27:16;98256.47;;;16.36;46.97
8573;BME280;4324;42.012;24.872;2023-04-03T08:29:43;98274.13;;;16.56;46.50
8573;BME280;4324;42.012;24.872;2023-04-03T08:32:11;98270.41;;;16.57;46.64
8573;BME280;4324;42.012;24.872;2023-04-03T08:34:38;98200.53;;;16.16;46.74
8573;BME280;4324;42.012;24.872;2023-04-03T08:37:05;98196.63;;;16.19;46.77
8573;BME280;4324;42.012;24.872;2023-04-03T08:39:32;98256.41;;;16.61;46.75
8573;BME280;4324;42.012;24.872;2023-04-03T08:42:05;98261.66;;;16.68;46.89
8573;BME280;4324;42.012;24.872;2023-04-03T08:44:39;98244.50;;;16.57;47.34
8573;BME280;4324;42.012;24.872;2023-04-03T08:47:20;98260.03;;;16.67;47.10
8573;BME280;4324;42.012;24.872;2023-04-03T08:49:51;98265.00;;;16.63;47.24
8573;BME280;4324;42.012;24.872;2023-04-03T08:52:22;98236.41;;;16.45;47.45
8573;BME280;4324;42.012;24.872;2023-04-03T08:54:54;98253.19;;;16.53;47.63
8573;BME280;4324;42.012;24.872;2023-04-03T08:57:29;98242.19;;;16.42;47.85
8573;BME280;4324;42.012;24.872;2023-04-03T08:59:58;98260.00;;;16.49;47.97
8573;BME280;4324;42.012;24.872;2023-04-03T09:02:31;98227.19;;;16.23;48.15
8573;BME280;4324;42.012;24.872;2023-04-03T09:05:05;98252.72;;;16.37;48.46
8573;BME280;4324;42.012;24.872;2023-04-03T09:07:39;98247.41;;;16.37;48.54
8573;BME280;4324;42.012;24.872;2023-04-03T09:10:10;98243.97;;;16.30;48.51
8573;BME280;4324;42.012;24.872;2023-04-03T09:12:42;98236.56;;;16.32;48.33
8573;BME280;4324;42.012;24.872;2023-04-03T09:15:17;98242.78;;;16.44;48.27
8573;BME280;4324;42.012;24.872;2023-04-03T09:17:58;98168.28;;;16.00;48.31
8573;BME280;4324;42.012;24.872;2023-04-03T09:20:35;98241.63;;;16.40;47.95
8573;BME280;4324;42.012;24.872;2023-04-03T09:23:18;98227.75;;;16.32;47.86
8573;BME280;4324;42.012;24.872;2023-04-03T09:25:47;98237.88;;;16.41;47.99
8573;BME280;4324;42.012;24.872;2023-04-03T09:28:17;98241.75;;;16.45;48.15
8573;BME280;4324;42.012;24.872;2023-04-03T09:30:44;98219.03;;;16.18;48.03
8573;BME280;4324;42.012;24.872;2023-04-03T09:33:11;98204.31;;;16.09;48.13
8573;BME280;4324;42.012;24.872;2023-04-03T09:35:41;98230.53;;;16.18;48.23
8573;BME280;4324;42.012;24.872;2023-04-03T09:38:18;98237.22;;;16.09;48.54
8573;BME280;4324;42.012;24.872;2023-04-03T09:40:47;98212.69;;;15.94;48.76
8573;BME280;4324;42.012;24.872;2023-04-03T09:43:38;98208.28;;;15.81;49.08
8573;BME280;4324;42.012;24.872;2023-04-03T09:46:25;98229.75;;;15.93;49.10
8573;BME280;4324;42.012;24.872;2023-04-03T09:48:58;98212.59;;;15.82;49.46
8573;BME280;4324;42.012;24.872;2023-04-03T09:51:26;98209.63;;;15.90;49.71
8573;BME280;4324;42.012;24.872;2023-04-03T09:53:55;98200.22;;;15.88;49.57
8573;BME280;4324;42.012;24.872;2023-04-03T09:56:25;98211.88;;;15.93;49.52
8573;BME280;4324;42.012;24.872;2023-04-03T09:59:08;98218.88;;;15.94;50.35
8573;BME280;4324;42.012;24.872;2023-04-03T10:01:36;98205.72;;;15.93;50.64
8573;BME280;4324;42.012;24.872;2023-04-03T10:04:07;98220.06;;;15.99;50.84
8573;BME280;4324;42.012;24.872;2023-04-03T10:06:36;98217.63;;;15.90;50.55
8573;BME280;4324;42.012;24.872;2023-04-03T10:09:16;98203.25;;;15.73;51.00
8573;BME280;4324;42.012;24.872;2023-04-03T10:11:57;98196.72;;;15.69;52.09
8573;BME280;4324;42.012;24.872;2023-04-03T10:14:26;98211.19;;;15.80;51.96
8573;BME280;4324;42.012;24.872;2023-04-03T10:16:59;98228.41;;;15.84;52.27
8573;BME280;4324;42.012;24.872;2023-04-03T10:19:39;98225.28;;;15.87;52.64
8573;BME280;4324;42.012;24.872;2023-04-03T10:22:17;98187.03;;;15.68;52.75
8573;BME280;4324;42.012;24.872;2023-04-03T10:24:52;98197.50;;;15.94;52.98
8573;BME280;4324;42.012;24.872;2023-04-03T10:27:27;98214.28;;;16.20;53.28
8573;BME280;4324;42.012;24.872;2023-04-03T10:30:04;98214.28;;;16.38;53.22
8573;BME280;4324;42.012;24.872;2023-04-03T10:32:50;98209.25;;;16.49;52.77
8573;BME280;4324;42.012;24.872;2023-04-03T10:35:30;98198.56;;;16.49;52.97
8573;BME280;4324;42.012;24.872;2023-04-03T10:38:09;98214.72;;;16.72;52.92
8573;BME280;4324;42.012;24.872;2023-04-03T10:40:46;98210.97;;;16.80;52.39
8573;BME280;4324;42.012;24.872;2023-04-03T10:43:18;98199.91;;;16.76;52.26
8573;BME280;4324;42.012;24.872;2023-04-03T10:45:55;98213.53;;;16.86;52.35
8573;BME280;4324;42.012;24.872;2023-04-03T10:48:34;98230.75;;;16.90;52.55
8573;BME280;4324;42.012;24.872;2023-04-03T10:51:15;98210.59;;;16.76;52.78
8573;BME280;4324;42.012;24.872;2023-04-03T10:53:52;98205.75;;;16.66;52.66
8573;BME280;4324;42.012;24.872;2023-04-03T10:56:27;98193.72;;;16.57;52.22
8573;BME280;4324;42.012;24.872;2023-04-03T10:58:59;98199.66;;;16.59;51.94
8573;BME280;4324;42.012;24.872;2023-04-03T11:01:32;98215.25;;;16.62;52.26
8573;BME280;4324;42.012;24.872;2023-04-03T11:04:02;98208.00;;;16.51;52.41
8573;BME280;4324;42.012;24.872;2023-04-03T11:06:34;98203.22;;;16.53;52.62
8573;BME280;4324;42.012;24.872;2023-04-03T11:09:05;98214.44;;;16.62;52.79
8573;BME280;4324;42.012;24.872;2023-04-03T11:11:37;98191.88;;;16.58;52.73
8573;BME280;4324;42.012;24.872;2023-04-03T11:14:09;98186.44;;;16.64;53.13
8573;BME280;4324;42.012;24.872;2023-04-03T11:16:45;98188.28;;;16.64;53.56
8573;BME280;4324;42.012;24.872;2023-04-03T11:19:18;98171.03;;;16.48;53.19
8573;BME280;4324;42.012;24.872;2023-04-03T11:21:53;98184.25;;;16.43;53.21
8573;BME280;4324;42.012;24.872;2023-04-03T11:24:24;98193.75;;;16.39;53.45
8573;BME280;4324;42.012;24.872;2023-04-03T11:26:53;98182.09;;;16.15;53.21
8573;BME280;4324;42.012;24.872;2023-04-03T11:29:23;98149.13;;;15.84;53.69
8573;BME280;4324;42.012;24.872;2023-04-03T11:32:07;98192.00;;;16.08;54.05
8573;BME280;4324;42.012;24.872;2023-04-03T11:34:39;98192.75;;;16.15;53.71
8573;BME280;4324;42.012;24.872;2023-04-03T11:37:14;98163.81;;;15.93;54.02
8573;BME280;4324;42.012;24.872;2023-04-03T11:39:49;98126.31;;;15.63;54.13
8573;BME280;4324;42.012;24.872;2023-04-03T11:42:24;98185.41;;;15.92;53.94
8573;BME280;4324;42.012;24.872;2023-04-03T11:45:15;98191.28;;;15.76;53.83
8573;BME280;4324;42.012;24.872;2023-04-03T11:47:46;98194.25;;;15.67;54.56
8573;BME280;4324;42.012;24.872;2023-04-03T11:50:42;98159.09;;;15.45;55.26
8573;BME280;4324;42.012;24.872;2023-04-03T11:53:35;98125.44;;;15.19;55.10
8573;BME280;4324;42.012;24.872;2023-04-03T11:56:31;98169.16;;;15.43;54.79
8573;BME280;4324;42.012;24.872;2023-04-03T11:59:24;98178.56;;;15.46;55.38
8573;BME280;4324;42.012;24.872;2023-04-03T12:01:53;98165.13;;;15.34;55.75
8573;BME280;4324;42.012;24.872;2023-04-03T12:04:24;98105.13;;;14.93;55.92
8573;BME280;4324;42.012;24.872;2023-04-03T12:07:02;98177.09;;;15.25;55.65
8573;BME280;4324;42.012;24.872;2023-04-03T12:12:33;98169.03;;;15.07;56.82
8573;BME280;4324;42.012;24.872;2023-04-03T12:15:21;98180.50;;;15.07;57.23
8573;BME280;4324;42.012;24.872;2023-04-03T12:17:49;98164.19;;;14.90;56.49
8573;BME280;4324;42.012;24.872;2023-04-03T12:20:54;98183.88;;;14.89;56.73
8573;BME280;4324;42.012;24.872;2023-04-03T12:23:26;98150.41;;;14.68;56.93
8573;BME280;4324;42.012;24.872;2023-04-03T12:26:01;98169.22;;;14.73;57.64
8573;BME280;4324;42.012;24.872;2023-04-03T12:28:36;98121.81;;;14.37;57.46
8573;BME280;4324;42.012;24.872;2023-04-03T12:31:05;98163.75;;;14.62;57.52
8573;BME280;4324;42.012;24.872;2023-04-03T12:33:43;98074.03;;;13.97;58.37
8573;BME280;4324;42.012;24.872;2023-04-03T12:36:21;98099.59;;;14.12;59.01
8573;BME280;4324;42.012;24.872;2023-04-03T12:39:01;98159.06;;;14.44;59.35
8573;BME280;4324;42.012;24.872;2023-04-03T12:41:37;98078.56;;;13.90;59.36
8573;BME280;4324;42.012;24.872;2023-04-03T12:44:21;98152.13;;;14.36;59.65
8573;BME280;4324;42.012;24.872;2023-04-03T12:46:52;98146.81;;;14.36;59.95
8573;BME280;4324;42.012;24.872;2023-04-03T12:49:35;98142.28;;;14.43;60.55
8573;BME280;4324;42.012;24.872;2023-04-03T12:52:05;98045.03;;;13.83;60.38
8573;BME280;4324;42.012;24.872;2023-04-03T12:54:35;98144.13;;;14.43;60.44
8573;BME280;4324;42.012;24.872;2023-04-03T12:57:10;98035.25;;;13.70;61.48
8573;BME280;4324;42.012;24.872;2023-04-03T12:59:37;98123.91;;;14.28;61.62
8573;BME280;4324;42.012;24.872;2023-04-03T13:02:15;98122.88;;;14.23;62.35
8573;BME280;4324;42.012;24.872;2023-04-03T13:04:46;98100.84;;;14.02;62.04
8573;BME280;4324;42.012;24.872;2023-04-03T13:07:26;98065.91;;;13.79;62.50
8573;BME280;4324;42.012;24.872;2023-04-03T13:09:58;98141.09;;;14.26;62.70
8573;BME280;4324;42.012;24.872;2023-04-03T13:12:26;98130.88;;;14.23;63.00
8573;BME280;4324;42.012;24.872;2023-04-03T13:14:55;98113.50;;;14.14;63.29
8573;BME280;4324;42.012;24.872;2023-04-03T13:17:24;98128.84;;;14.25;62.89
8573;BME280;4324;42.012;24.872;2023-04-03T13:19:51;98134.16;;;14.25;63.38
8573;BME280;4324;42.012;24.872;2023-04-03T13:22:27;98128.03;;;14.24;64.06
8573;BME280;4324;42.012;24.872;2023-04-03T13:24:57;98111.25;;;14.17;64.20
8573;BME280;4324;42.012;24.872;2023-04-03T13:27:26;98108.19;;;14.14;64.11